Time;durP1;ratioP1;P1;durP2;ratioP2;P2;SDS_P1;SDS_P2;PMS_P1;PMS_P2;Temp;Humidity;BMP_temperature;BMP_pressure;BME280_temperature;BME280_humidity;BME280_pressure;Samples;Min_cycle;Max_cycle;Signal;HPM_P1;HPM_P2
2023/02/24 00:02:00;;;;;;;28.37;16.93;;;9.80;99.90;;;12.91;59.04;97182.72;5063713;28;20508;-50
2023/02/24 00:04:37;;;;;;;29.57;17.70;;;9.70;99.90;;;12.88;59.26;97191.13;5071953;28;20040;-49
2023/02/24 00:07:11;;;;;;;32.90;17.93;;;9.70;99.90;;;12.77;59.45;97190.56;5065329;28;20051;-50
2023/02/24 00:09:39;;;;;;;25.90;16.53;;;9.60;99.90;;;12.78;59.46;97192.25;5062139;28;20063;-49
2023/02/24 00:12:13;;;;;;;30.90;18.30;;;9.60;99.90;;;12.78;59.52;97194.91;5072074;28;20049;-54
2023/02/24 00:14:44;;;;;;;28.63;17.03;;;9.70;99.90;;;12.81;59.74;97188.38;5045931;28;20045;-47
2023/02/24 00:17:15;;;;;;;26.80;17.50;;;9.70;99.90;;;12.83;59.31;97189.00;5072077;28;20397;-51
2023/02/24 00:19:45;;;;;;;28.93;17.53;;;9.70;99.90;;;12.80;59.65;97186.72;5054518;28;20495;-49
2023/02/24 00:22:13;;;;;;;28.97;17.27;;;9.70;99.90;;;12.86;59.48;97179.81;5071611;28;20045;-54
2023/02/24 00:24:40;;;;;;;29.47;18.43;;;9.70;99.90;;;12.89;59.37;97176.75;5071499;28;20450;-49
2023/02/24 00:27:11;;;;;;;31.80;16.43;;;9.80;99.90;;;12.79;59.54;97182.38;5071609;28;20045;-50
2023/02/24 00:29:40;;;;;;;24.50;16.33;;;9.70;99.90;;;12.69;59.94;97176.50;5071309;28;20115;-52
2023/02/24 00:32:11;;;;;;;28.27;17.37;;;9.60;99.90;;;12.72;59.59;97173.47;5053429;28;20208;-47
2023/02/24 00:34:40;;;;;;;27.17;17.73;;;9.50;99.90;;;12.73;59.83;97169.78;5052819;28;20045;-49
2023/02/24 00:37:08;;;;;;;27.77;17.93;;;9.60;99.90;;;12.73;59.70;97167.94;5053085;28;20503;-50
2023/02/24 00:39:40;;;;;;;32.23;19.10;;;9.60;99.90;;;12.76;59.94;97167.56;5071411;28;20037;-48
2023/02/24 00:42:10;;;;;;;29.50;18.07;;;9.60;99.90;;;12.77;59.74;97155.03;5053033;28;20051;-46
2023/02/24 00:44:46;;;;;;;30.30;20.70;;;9.60;99.90;;;12.69;60.02;97155.97;5070646;28;20044;-47
2023/02/24 00:47:15;;;;;;;29.67;17.93;;;9.50;99.90;;;12.66;59.87;97159.03;5037267;28;20405;-49
2023/02/24 00:49:43;;;;;;;26.53;16.97;;;9.50;99.90;;;12.60;59.93;97152.59;5053204;28;20213;-48
2023/02/24 00:52:18;;;;;;;26.90;17.07;;;9.40;99.90;;;12.53;60.00;97149.00;5071092;28;20044;-48
2023/02/24 00:54:48;;;;;;;28.60;18.20;;;9.30;99.90;;;12.49;60.27;97153.03;5070657;28;20059;-47
2023/02/24 00:57:17;;;;;;;31.57;19.20;;;9.30;99.90;;;12.47;60.06;97159.59;5071200;28;20051;-50
2023/02/24 00:59:46;;;;;;;30.80;19.93;;;9.30;99.90;;;12.47;60.35;97155.06;5052624;28;20053;-47
2023/02/24 01:02:14;;;;;;;26.73;18.30;;;9.30;99.90;;;12.48;60.48;97159.38;5071245;28;20666;-46
2023/02/24 01:04:44;;;;;;;27.87;19.20;;;9.30;99.90;;;12.46;60.12;97153.41;5070604;28;20472;-47
2023/02/24 01:07:13;;;;;;;37.33;20.03;;;9.30;99.90;;;12.41;60.52;97151.31;5069719;28;20063;-47
2023/02/24 01:09:43;;;;;;;32.13;19.10;;;9.30;99.90;;;12.40;60.43;97148.81;5071014;28;20044;-50
2023/02/24 01:14:58;;;;;;;31.57;18.80;;;9.30;99.90;;;12.46;60.32;97160.59;5052543;28;20522;-52
2023/02/24 01:17:26;;;;;;;31.33;18.93;;;9.30;99.90;;;12.48;60.56;97151.38;5053455;28;20048;-47
2023/02/24 01:19:53;;;;;;;28.43;18.03;;;9.30;99.90;;;12.53;60.58;97140.97;5052262;28;20063;-47
2023/02/24 01:22:22;;;;;;;29.60;19.67;;;9.40;99.90;;;12.57;60.41;97150.28;5052620;28;20519;-49
2023/02/24 01:24:50;;;;;;;29.43;18.27;;;9.40;99.90;;;12.62;60.35;97155.06;5070508;28;20423;-48
2023/02/24 01:27:18;;;;;;;35.53;19.70;;;9.40;99.90;;;12.57;59.91;97144.94;5070657;28;20056;-49
2023/02/24 01:29:47;;;;;;;32.63;19.67;;;9.40;99.90;;;12.52;60.21;97143.81;5071042;28;20041;-47
2023/02/24 01:32:20;;;;;;;35.10;20.40;;;9.30;99.90;;;12.55;59.88;97140.81;5052689;28;20045;-48
2023/02/24 01:34:52;;;;;;;31.63;19.50;;;9.30;99.90;;;12.56;59.90;97142.44;5070158;28;20075;-49
2023/02/24 01:37:20;;;;;;;31.17;18.57;;;9.30;99.90;;;12.55;59.81;97136.28;5052290;28;20053;-45
2023/02/24 01:39:49;;;;;;;30.40;19.47;;;9.30;99.90;;;12.50;60.33;97133.31;5052140;28;20055;-47
2023/02/24 01:42:20;;;;;;;25.47;18.27;;;9.30;99.90;;;12.54;60.00;97128.44;5035832;28;20067;-47
2023/02/24 01:44:50;;;;;;;26.87;19.07;;;9.30;99.90;;;12.56;60.18;97131.75;5035369;28;20063;-50
2023/02/24 01:47:19;;;;;;;31.47;18.53;;;9.30;99.90;;;12.58;59.76;97127.06;5051217;28;20044;-52
2023/02/24 01:49:53;;;;;;;42.53;19.33;;;9.30;99.90;;;12.46;60.05;97124.03;5051945;28;20052;-49
2023/02/24 01:52:30;;;;;;;30.87;18.57;;;9.30;99.90;;;12.48;60.04;97121.19;5053178;28;20044;-48
2023/02/24 01:55:27;;;;;;;30.87;17.93;;;9.20;99.90;;;12.49;59.93;97125.53;5020030;28;20298;-51
2023/02/24 01:57:57;;;;;;;34.47;20.33;;;9.30;99.90;;;12.48;59.88;97119.34;5053689;28;20059;-44
2023/02/24 02:00:36;;;;;;;29.27;18.80;;;9.20;99.90;;;12.47;59.93;97116.88;5053163;28;20423;-47
2023/02/24 02:03:17;;;;;;;31.23;20.37;;;9.20;99.90;;;12.46;60.04;97113.34;5045400;28;20172;-48
2023/02/24 02:05:47;;;;;;;29.60;18.80;;;9.20;99.90;;;12.50;59.98;97111.97;5045002;28;20052;-47
2023/02/24 02:08:18;;;;;;;32.40;20.23;;;9.30;99.90;;;12.46;59.85;97105.34;5051907;28;20056;-47
2023/02/24 02:10:46;;;;;;;32.63;19.10;;;9.20;99.90;;;12.46;60.03;97107.19;5036268;28;20049;-50
2023/02/24 02:13:20;;;;;;;33.03;19.70;;;9.20;99.90;;;12.38;60.07;97102.78;5036055;28;20499;-49
2023/02/24 02:16:36;;;;;;;36.37;22.80;;;9.20;99.90;;;12.35;59.96;97100.50;5052962;28;20040;-47
2023/02/24 02:19:41;;;;;;;;;;;9.20;99.90;;;12.39;59.61;97096.44;5039605;28;20048;-45
2023/02/24 02:22:48;;;;;;;35.97;19.13;;;9.10;99.90;;;12.29;59.69;97094.06;5044955;28;19920;-47
2023/02/24 02:26:21;;;;;;;35.57;21.70;;;9.10;99.90;;;12.15;59.97;97085.03;5064361;28;20044;-48
2023/02/24 02:29:12;;;;;;;35.83;21.93;;;9.00;99.90;;;12.21;60.03;97083.47;5071753;28;20044;-51
2023/02/24 02:32:33;;;;;;;36.83;23.27;;;8.90;99.90;;;12.18;59.99;97084.69;5055936;28;20036;-51
2023/02/24 02:35:17;;;;;;;40.37;22.83;;;9.00;99.90;;;12.25;59.75;97083.94;5055740;28;20041;-49
2023/02/24 02:38:03;;;;;;;39.15;22.88;;;9.10;99.90;;;12.26;59.72;97081.09;5022087;28;20424;-50
2023/02/24 02:40:52;;;;;;;41.17;23.77;;;9.10;99.90;;;12.17;60.04;97076.84;5057241;28;20051;-48
2023/02/24 02:44:06;;;;;;;35.87;21.80;;;8.90;99.90;;;12.14;59.97;97077.25;5050545;28;20051;-50
2023/02/24 02:47:00;;;;;;;42.13;22.95;;;8.90;99.90;;;12.16;59.91;97073.34;5064455;28;20048;-49
2023/02/24 02:49:36;;;;;;;35.47;22.13;;;9.00;99.90;;;12.14;59.95;97072.72;5045039;28;20091;-48
2023/02/24 02:52:41;;;;;;;45.00;23.60;;;8.90;99.90;;;12.08;59.98;97069.94;5039210;28;20045;-48
2023/02/24 02:55:16;;;;;;;40.38;22.00;;;8.90;99.90;;;12.15;59.77;97065.53;5031667;28;20048;-52
2023/02/24 02:57:47;;;;;;;40.03;23.67;;;8.90;99.90;;;12.07;59.85;97066.47;5039199;28;20063;-47
2023/02/24 03:00:28;;;;;;;40.87;24.40;;;8.90;99.90;;;12.07;59.64;97061.13;5039452;28;20055;-46
2023/02/24 03:03:02;;;;;;;40.43;23.53;;;8.90;99.90;;;12.12;59.67;97057.91;5056149;28;20044;-49
2023/02/24 03:05:52;;;;;;;40.57;22.87;;;8.90;99.90;;;12.10;59.75;97047.44;5047284;28;20044;-47
2023/02/24 03:08:28;;;;;;;42.33;24.43;;;8.90;99.90;;;12.14;59.99;97039.88;5055101;28;20051;-46
2023/02/24 03:10:59;;;;;;;41.23;23.80;;;8.90;99.90;;;12.15;59.77;97037.00;5038464;28;20416;-49
2023/02/24 03:13:30;;;;;;;40.57;21.43;;;9.00;99.90;;;12.16;59.55;97040.53;5054724;28;20499;-45
2023/02/24 03:16:02;;;;;;;42.53;24.70;;;8.90;99.90;;;12.09;59.71;97042.28;5037845;28;20048;-48
2023/02/24 03:18:43;;;;;;;42.93;23.97;;;8.90;99.90;;;12.09;59.58;97040.41;5055740;28;20043;-48
2023/02/24 03:24:14;;;;;;;41.27;24.53;;;8.90;99.90;;;12.02;60.05;97039.53;5047291;28;20527;-50
2023/02/24 03:27:06;;;;;;;43.73;24.27;;;8.80;99.90;;;12.00;59.99;97033.56;5072966;28;20044;-51
2023/02/24 03:29:53;;;;;;;40.53;23.83;;;8.80;99.90;;;12.05;59.95;97032.97;5054476;28;20055;-45
2023/02/24 03:32:49;;;;;;;43.10;24.10;;;8.90;99.90;;;12.03;59.87;97041.16;5042265;28;20048;-47
2023/02/24 03:35:33;;;;;;;44.40;24.20;;;8.80;99.90;;;12.01;60.03;97043.19;5037723;28;20053;-49
2023/02/24 03:38:02;;;;;;;46.03;25.47;;;8.80;99.90;;;11.93;60.09;97037.97;5061603;28;20044;-46
2023/02/24 03:40:34;;;;;;;49.17;26.03;;;8.70;99.90;;;11.95;59.91;97038.59;5037515;28;20044;-46
2023/02/24 03:43:15;;;;;;;44.47;24.40;;;8.80;99.90;;;11.93;60.10;97041.44;5047433;28;20526;-45
2023/02/24 03:45:45;;;;;;;53.20;26.90;;;8.70;99.90;;;11.85;59.98;97032.69;5046505;28;20052;-51
2023/02/24 03:48:14;;;;;;;46.13;25.50;;;8.60;99.90;;;11.89;60.09;97049.97;5054006;28;20053;-46
2023/02/24 03:50:45;;;;;;;48.17;25.90;;;8.70;99.90;;;11.72;60.57;97039.47;5053922;28;20338;-46
2023/02/24 03:53:52;;;;;;;43.00;25.02;;;8.60;99.90;;;11.69;60.33;97042.53;5048537;28;20041;-51
2023/02/24 03:56:57;;;;;;;42.83;24.13;;;8.50;99.90;;;11.75;60.24;97046.31;5047686;28;20048;-49
2023/02/24 03:59:56;;;;;;;45.37;23.87;;;8.60;99.90;;;11.79;60.33;97042.25;5047269;28;20048;-50
2023/02/24 04:02:32;;;;;;;43.27;24.90;;;8.60;99.90;;;11.79;59.99;97037.75;5033163;28;20075;-47
2023/02/24 04:05:09;;;;;;;47.33;26.63;;;8.50;99.90;;;11.71;60.59;97031.66;5037927;28;20048;-46
2023/02/24 04:07:59;;;;;;;42.63;23.87;;;8.50;99.90;;;11.79;60.08;97034.25;5038834;28;20064;-45
2023/02/24 04:10:35;;;;;;;45.17;26.13;;;8.60;99.90;;;11.76;60.60;97038.09;5037381;28;20059;-45
2023/02/24 04:13:22;;;;;;;50.43;27.57;;;8.60;99.90;;;11.80;60.30;97042.03;5037436;28;20060;-47
2023/02/24 04:16:00;;;;;;;51.13;27.77;;;8.60;99.90;;;11.86;60.50;97031.66;5045366;28;20303;-49
2023/02/24 04:18:31;;;;;;;52.73;26.63;;;8.70;99.90;;;11.90;59.94;97041.81;5038548;28;20052;-46
2023/02/24 04:21:03;;;;;;;42.57;24.70;;;8.70;99.90;;;11.95;59.76;97038.59;5037501;28;20053;-46
2023/02/24 04:23:42;;;;;;;48.27;26.30;;;8.70;99.90;;;11.81;59.84;97033.03;5071628;28;20440;-50
2023/02/24 04:26:14;;;;;;;48.47;26.03;;;8.70;99.90;;;11.77;60.17;97031.75;5036947;28;20048;-47
2023/02/24 04:28:43;;;;;;;52.03;26.37;;;8.60;99.90;;;11.74;59.92;97032.13;5037597;28;20052;-45
2023/02/24 04:31:16;;;;;;;48.37;27.60;;;8.50;99.90;;;11.74;60.28;97029.44;5053891;28;20044;-49
2023/02/24 04:33:49;;;;;;;;;;;8.50;99.90;;;11.75;60.15;97031.13;5046332;28;20051;-48
2023/02/24 04:36:20;;;;;;;53.20;26.07;;;8.50;99.90;;;11.66;60.09;97021.56;5030268;28;20083;-45
2023/02/24 04:38:49;;;;;;;49.47;26.80;;;8.40;99.90;;;11.66;59.85;97026.06;5050376;28;20044;-47
2023/02/24 04:41:20;;;;;;;52.20;27.43;;;8.40;99.90;;;11.62;60.07;97021.09;5052694;28;20036;-47
2023/02/24 04:43:51;;;;;;;52.60;25.53;;;8.40;99.90;;;11.59;60.30;97025.94;5053122;28;20530;-48
2023/02/24 04:46:19;;;;;;;55.90;28.33;;;8.30;99.90;;;11.64;60.21;97012.91;5071303;28;20036;-50
2023/02/24 04:48:46;;;;;;;51.43;27.03;;;8.40;99.90;;;11.60;60.21;97012.44;5068090;28;20040;-48
2023/02/24 04:51:14;;;;;;;51.57;26.23;;;8.40;99.90;;;11.59;60.38;97009.94;5071122;28;20024;-50
2023/02/24 04:53:42;;;;;;;46.87;25.53;;;8.40;99.90;;;11.59;60.14;97001.94;5071315;28;20590;-49
2023/02/24 04:56:09;;;;;;;46.83;25.07;;;8.40;99.90;;;11.63;60.28;97005.91;5052214;28;20055;-47
2023/02/24 04:58:38;;;;;;;51.60;28.03;;;8.40;99.90;;;11.63;60.15;96993.44;5071223;28;20045;-50
2023/02/24 05:01:10;;;;;;;47.67;26.43;;;8.40;99.90;;;11.60;60.35;96990.28;5070860;28;20048;-49
2023/02/24 05:03:41;;;;;;;56.20;27.30;;;8.40;99.90;;;11.52;60.30;96988.53;5071373;28;20047;-48
2023/02/24 05:06:15;;;;;;;54.23;26.10;;;8.30;99.90;;;11.49;60.05;96982.75;5070694;28;20040;-50
2023/02/24 05:08:43;;;;;;;52.53;26.15;;;8.30;99.90;;;11.47;60.06;96979.44;5053128;28;20055;-49
2023/02/24 05:11:15;;;;;;;52.13;26.40;;;8.20;99.90;;;11.46;59.98;96975.94;5036555;28;20049;-46
2023/02/24 05:13:46;;;;;;;49.37;24.80;;;8.20;99.90;;;11.43;60.18;96969.13;5053444;28;20415;-49
2023/02/24 05:16:17;;;;;;;53.80;27.13;;;8.20;99.90;;;11.42;59.81;96972.81;5045310;28;20048;-51
2023/02/24 05:18:44;;;;;;;53.47;25.83;;;8.20;99.90;;;11.45;60.00;96968.13;5071026;28;20048;-47
2023/02/24 05:21:35;;;;;;;66.30;27.20;;;8.20;99.90;;;11.36;60.16;96959.38;5070666;28;20048;-49
2023/02/24 05:24:06;;;;;;;61.93;27.40;;;8.10;99.90;;;11.36;59.76;96952.25;5070482;28;20542;-46
2023/02/24 05:26:35;;;;;;;59.03;27.67;;;8.10;99.90;;;11.44;60.16;96956.66;5070972;28;20040;-49
2023/02/24 05:29:06;;;;;;;59.60;27.43;;;8.20;99.90;;;11.42;60.10;96948.84;5070683;28;20040;-48
2023/02/24 05:31:33;;;;;;;56.23;30.53;;;8.20;99.90;;;11.34;60.13;96953.41;5053126;28;20045;-48
2023/02/24 05:34:05;;;;;;;60.30;29.37;;;8.10;99.90;;;11.35;60.09;96942.56;5070349;28;20048;-48
2023/02/24 05:36:44;;;;;;;56.30;27.40;;;8.10;99.90;;;11.35;59.96;96947.91;5070419;28;20534;-48
2023/02/24 05:39:18;;;;;;;58.53;29.97;;;8.10;99.90;;;11.32;59.92;96945.63;5070700;28;20040;-48
2023/02/24 05:41:48;;;;;;;60.67;28.85;;;8.10;99.90;;;11.36;60.16;96944.25;5070472;28;20059;-49
2023/02/24 05:44:22;;;;;;;69.33;28.73;;;8.10;99.90;;;11.40;60.10;96936.72;5062400;28;20044;-45
2023/02/24 05:46:55;;;;;;;;;;;8.20;99.90;;;11.37;59.78;96942.41;5071116;28;20423;-48
2023/02/24 05:49:31;;;;;;;63.00;27.17;;;8.10;99.90;;;11.32;60.04;96944.78;5069882;28;19921;-50
2023/02/24 05:52:07;;;;;;;62.80;29.00;;;8.00;99.90;;;11.25;59.82;96946.53;5070434;28;20044;-50
2023/02/24 05:54:42;;;;;;;58.83;28.00;;;8.00;99.90;;;11.22;60.23;96937.06;5070090;28;20052;-48
2023/02/24 05:57:16;;;;;;;53.70;24.40;;;7.90;99.90;;;11.20;60.11;96945.22;5070513;28;20052;-52
2023/02/24 05:59:44;;;;;;;62.60;30.30;;;7.90;99.90;;;11.09;59.94;96937.69;5070789;28;20052;-49
2023/02/24 06:02:15;;;;;;;70.87;28.13;;;7.80;99.90;;;11.07;59.83;96937.06;5074296;28;20055;-45
2023/02/24 06:04:49;;;;;;;55.83;27.07;;;7.80;99.90;;;11.09;60.41;96931.53;5074048;28;20040;-49
2023/02/24 06:07:23;;;;;;;60.63;27.03;;;7.80;99.90;;;11.08;60.28;96922.72;5057446;28;20411;-48
2023/02/24 06:09:55;;;;;;;62.85;28.60;;;7.90;99.90;;;11.07;60.01;96917.56;5074148;28;20200;-48
2023/02/24 06:12:32;;;;;;;64.03;26.00;;;7.90;99.90;;;11.14;59.83;96927.31;5074276;28;20040;-50
2023/02/24 06:15:06;;;;;;;60.50;27.23;;;7.90;99.90;;;11.07;59.81;96925.53;5063838;28;20044;-51
2023/02/24 06:17:33;;;;;;;49.83;23.98;;;7.80;99.90;;;11.03;60.06;96917.94;5074129;28;20427;-52
2023/02/24 06:20:11;;;;;;;61.77;25.10;;;7.80;99.90;;;11.02;59.99;96921.59;5073587;28;20049;-49
2023/02/24 06:22:41;;;;;;;55.60;25.00;;;7.80;99.90;;;11.08;60.21;96916.56;5074164;28;20044;-51
2023/02/24 06:25:12;;;;;;;60.90;26.30;;;7.80;99.90;;;11.06;60.36;96910.59;5073511;28;20053;-48
2023/02/24 06:27:41;;;;;;;62.37;28.73;;;7.90;99.90;;;11.12;59.70;96908.00;5074070;28;20433;-48
2023/02/24 06:30:10;;;;;;;56.80;25.17;;;7.90;99.90;;;11.15;59.37;96909.50;5073645;28;20059;-49
2023/02/24 06:32:38;;;;;;;61.07;26.40;;;7.90;99.90;;;11.07;59.48;96906.91;5074082;28;20431;-46
2023/02/24 06:35:07;;;;;;;59.57;27.47;;;7.80;99.90;;;11.04;59.58;96910.75;5073344;28;20538;-50
2023/02/24 06:37:35;;;;;;;53.77;24.30;;;7.80;99.90;;;11.02;59.60;96910.94;5073337;28;20103;-47
2023/02/24 06:40:14;;;;;;;58.93;27.27;;;7.80;99.90;;;11.06;59.67;96908.75;5073393;28;20040;-47
2023/02/24 06:42:48;;;;;;;49.97;23.40;;;7.80;99.90;;;11.10;59.41;96906.56;5073917;28;20550;-50
2023/02/24 06:45:16;;;;;;;62.25;26.58;;;7.90;99.90;;;11.17;60.06;96896.81;5073114;28;20044;-49
2023/02/24 06:47:45;;;;;;;53.53;24.87;;;8.00;99.90;;;11.25;59.78;96903.91;5073663;28;20063;-49
2023/02/24 06:50:13;;;;;;;51.13;25.33;;;8.10;99.90;;;11.26;59.37;96895.69;5055374;28;20424;-52
2023/02/24 06:52:42;;;;;;;58.33;25.30;;;8.10;99.90;;;11.27;59.17;96905.38;5073591;28;20051;-48
2023/02/24 06:55:24;;;;;;;55.77;24.10;;;8.00;99.90;;;11.28;59.07;96901.66;5072583;28;20526;-50
2023/02/24 06:58:03;;;;;;;57.13;25.77;;;8.10;99.90;;;11.25;58.78;96903.91;5073796;28;20048;-50
2023/02/24 07:00:39;;;;;;;57.87;24.60;;;8.00;99.90;;;11.13;59.42;96900.88;5056854;28;20048;-49
2023/02/24 07:03:16;;;;;;;58.17;26.43;;;7.90;99.90;;;11.09;59.13;96903.06;5056493;28;20057;-51
2023/02/24 07:05:49;;;;;;;57.97;24.73;;;7.90;99.90;;;11.12;58.97;96897.34;5073111;28;20491;-46
2023/02/24 07:08:22;;;;;;;52.70;25.38;;;7.90;99.90;;;11.08;59.20;96905.91;5073185;28;20351;-46
2023/02/24 07:10:56;;;;;;;56.50;23.67;;;7.80;99.90;;;10.98;59.24;96898.19;5073017;28;20423;-51
2023/02/24 07:13:28;;;;;;;59.97;25.80;;;7.70;99.90;;;11.01;58.99;96893.31;5065941;28;20048;-51
2023/02/24 07:16:06;;;;;;;53.77;24.63;;;7.80;99.90;;;10.93;59.54;96901.38;5055087;28;20052;-46
2023/02/24 07:18:40;;;;;;;54.63;23.03;;;7.80;99.90;;;10.78;59.60;96890.72;5073227;28;20048;-48
2023/02/24 07:21:10;;;;;;;56.77;25.57;;;7.70;99.90;;;10.87;59.89;96895.97;5072623;28;20068;-50
2023/02/24 07:23:44;;;;;;;56.07;26.07;;;7.70;99.90;;;10.86;59.46;96894.28;5054264;28;20044;-47
2023/02/24 07:26:18;;;;;;;53.22;25.80;;;7.70;99.90;;;10.87;59.91;96896.78;5072284;28;20055;-45
2023/02/24 07:28:47;;;;;;;51.13;23.47;;;7.70;99.90;;;10.78;59.55;96896.03;5054273;28;20055;-48
2023/02/24 07:31:19;;;;;;;55.93;23.80;;;7.60;99.90;;;10.83;59.92;96898.16;5054030;28;20056;-48
2023/02/24 07:33:50;;;;;;;56.70;24.20;;;7.60;99.90;;;10.83;59.65;96898.16;5072448;28;20051;-47
2023/02/24 07:36:21;;;;;;;50.77;24.03;;;7.70;99.90;;;10.88;59.87;96893.13;5054653;28;20028;-47
2023/02/24 07:38:53;;;;;;;52.93;23.83;;;7.70;99.90;;;10.96;59.69;96886.88;5072622;28;20385;-52
2023/02/24 07:41:22;;;;;;;52.90;23.23;;;7.80;99.90;;;11.04;59.83;96884.13;5063599;28;20067;-48
2023/02/24 07:43:52;;;;;;;54.83;23.93;;;7.90;99.90;;;11.07;59.56;96883.78;5072080;28;20115;-47
2023/02/24 07:46:26;;;;;;;56.53;23.67;;;7.90;99.90;;;11.07;59.71;96880.25;5072154;28;20538;-48
2023/02/24 07:48:57;;;;;;;53.73;22.63;;;7.90;99.90;;;11.10;59.72;96877.25;5069210;28;20519;-48
2023/02/24 07:51:28;;;;;;;53.40;23.80;;;7.90;99.90;;;11.16;58.91;96877.31;5063440;28;20070;-49
2023/02/24 07:53:59;;;;;;;51.53;22.83;;;8.00;99.90;;;11.19;59.02;96876.97;5071946;28;20032;-46
2023/02/24 07:56:29;;;;;;;50.20;20.60;;;8.00;99.90;;;11.12;59.56;96881.38;5064518;28;20649;-49
2023/02/24 07:59:01;;;;;;;44.13;20.17;;;8.00;99.90;;;11.16;60.07;96876.50;5071976;28;20040;-46
2023/02/24 08:01:37;;;;;;;51.07;23.27;;;8.00;99.90;;;11.24;59.70;96879.06;5054552;28;20427;-47
2023/02/24 08:04:11;;;;;;;55.33;25.33;;;8.10;99.90;;;11.34;59.26;96871.66;5071779;28;20040;-49
2023/02/24 08:06:44;;;;;;;53.25;24.30;;;8.20;99.90;;;11.35;59.47;96875.94;5062178;28;20041;-51
2023/02/24 08:09:19;;;;;;;51.97;22.03;;;8.20;99.90;;;11.36;59.55;96866.97;5071938;28;20496;-48
2023/02/24 08:11:51;;;;;;;51.03;23.03;;;8.10;99.90;;;11.43;59.20;96870.50;5054560;28;20511;-50
2023/02/24 08:14:24;;;;;;;53.37;22.00;;;8.20;99.90;;;11.47;59.45;96870.97;5071183;28;20037;-49
2023/02/24 08:16:58;;;;;;;53.25;23.55;;;8.30;99.90;;;11.48;59.39;96872.66;5071768;28;20063;-46
2023/02/24 08:19:32;;;;;;;40.42;20.00;;;8.30;99.90;;;11.42;59.07;96866.22;5064106;28;20037;-48
2023/02/24 08:22:19;;;;;;;52.77;21.77;;;8.20;99.90;;;11.43;59.25;96861.69;5071351;28;20041;-48
2023/02/24 08:24:53;;;;;;;46.23;21.50;;;8.20;99.90;;;11.46;59.34;96864.00;5070922;28;20051;-50
2023/02/24 08:27:30;;;;;;;47.50;21.87;;;8.30;99.90;;;11.37;59.13;96870.44;5070893;28;20040;-49
2023/02/24 08:30:02;;;;;;;50.03;23.43;;;8.20;99.90;;;11.33;59.47;96855.84;5071487;28;20040;-48
2023/02/24 08:32:45;;;;;;;52.83;21.20;;;8.10;99.90;;;11.21;59.56;96861.63;5064300;28;20052;-47
2023/02/24 08:35:16;;;;;;;44.37;21.53;;;8.00;99.90;;;11.23;59.55;96854.28;5071070;28;20464;-48
2023/02/24 08:37:51;;;;;;;43.67;21.73;;;8.10;99.90;;;11.25;59.90;96855.94;5071034;28;20393;-50
2023/02/24 08:43:15;;;;;;;45.40;19.33;;;8.10;99.90;;;11.31;59.88;96857.88;5071768;28;20048;-49
2023/02/24 08:45:55;;;;;;;38.47;19.03;;;8.10;99.90;;;11.44;59.81;96850.03;5070798;28;20107;-48
2023/02/24 08:48:36;;;;;;;42.33;19.80;;;8.30;99.90;;;11.43;59.65;96841.19;5053616;28;20103;-47
2023/02/24 08:51:07;;;;;;;41.60;17.77;;;8.30;99.90;;;11.63;59.74;96840.59;5070639;28;20291;-50
2023/02/24 08:53:39;;;;;;;40.33;19.50;;;8.50;99.90;;;11.77;59.97;96839.75;5070169;28;20036;-48
2023/02/24 08:56:13;;;;;;;38.30;18.67;;;8.70;99.90;;;11.82;59.37;96836.53;5053436;28;20071;-49
2023/02/24 08:58:47;;;;;;;32.13;16.43;;;8.70;99.90;;;11.82;59.44;96829.38;5053589;28;20040;-47
2023/02/24 09:01:24;;;;;;;34.22;14.77;;;8.70;99.90;;;11.87;59.41;96826.13;5070712;28;20047;-50
2023/02/24 09:03:56;;;;;;;31.57;14.93;;;8.70;99.90;;;11.97;58.84;96829.31;5071032;28;20044;-50
2023/02/24 09:06:35;;;;;;;27.70;14.37;;;8.80;99.90;;;12.06;58.88;96831.88;5052427;28;20048;-48
2023/02/24 09:09:22;;;;;;;29.77;13.40;;;8.90;99.90;;;12.10;58.37;96833.97;5070949;28;20044;-50
2023/02/24 09:11:58;;;;;;;29.23;13.40;;;9.00;99.90;;;12.14;58.50;96826.44;5070686;28;20036;-48
2023/02/24 09:14:36;;;;;;;27.33;13.37;;;9.00;99.90;;;12.20;58.01;96820.31;5070400;28;20425;-45
2023/02/24 09:17:09;;;;;;;30.73;15.33;;;9.00;99.90;;;12.18;58.22;96820.50;5070623;28;20040;-50
2023/02/24 09:22:30;;;;;;;29.27;15.13;;;8.90;99.90;;;12.14;58.29;96813.91;5070564;28;20052;-47
2023/02/24 09:25:17;;;;;;;30.58;16.08;;;8.90;99.90;;;12.15;58.42;96820.88;5054499;28;20047;-45
2023/02/24 09:27:51;;;;;;;39.07;19.53;;;8.90;99.90;;;12.15;58.25;96815.53;5065123;28;20393;-49
2023/02/24 09:30:34;;;;;;;38.40;17.35;;;8.90;99.90;;;12.07;58.23;96817.53;5070101;28;20401;-46
2023/02/24 09:33:37;;;;;;;42.85;21.05;;;8.80;99.90;;;11.96;58.19;96808.16;5071254;28;20059;-48
2023/02/24 09:36:18;;;;;;;45.37;19.70;;;8.70;99.90;;;11.96;58.78;96813.50;5053820;28;20059;-45
2023/02/24 09:41:54;;;;;;;53.90;22.67;;;8.70;99.90;;;11.97;58.62;96817.84;5074713;28;20044;-49
2023/02/24 09:44:35;;;;;;;55.03;23.93;;;8.70;99.90;;;11.98;58.54;96815.00;5058820;28;20055;-46
2023/02/24 09:47:55;;;;;;;55.90;24.90;;;8.70;99.90;;;11.91;58.31;96807.94;5074574;28;20045;-51
2023/02/24 09:50:59;;;;;;;57.40;25.37;;;8.70;99.90;;;12.05;58.51;96800.88;5074474;28;20063;-48
2023/02/24 09:53:48;;;;;;;55.63;24.40;;;8.80;99.90;;;12.03;58.52;96803.72;5053637;28;20037;-50
2023/02/24 09:56:41;;;;;;;53.77;24.37;;;8.80;99.90;;;11.96;58.37;96798.34;5058653;28;20055;-46
2023/02/24 09:59:24;;;;;;;57.13;24.73;;;8.70;99.90;;;11.96;58.93;96789.50;5074527;28;20430;-49
2023/02/24 10:02:02;;;;;;;54.47;24.15;;;8.70;99.90;;;11.94;58.66;96791.53;5074600;28;20319;-46
2023/02/24 10:05:06;;;;;;;59.90;24.97;;;8.70;99.90;;;11.95;59.14;96793.19;5048038;28;20041;-53
2023/02/24 10:07:38;;;;;;;59.67;26.05;;;8.80;99.90;;;12.07;58.97;96790.84;5051152;28;20037;-50
2023/02/24 10:10:27;;;;;;;64.20;26.40;;;8.90;99.90;;;11.86;58.82;96792.47;5056199;28;20353;-47
2023/02/24 10:13:13;;;;;;;60.57;24.57;;;8.70;99.90;;;11.71;59.26;96784.53;5074321;28;20041;-50
2023/02/24 10:16:40;;;;;;;55.53;24.20;;;8.50;99.90;;;11.74;59.11;96789.47;5051132;28;20045;-47
2023/02/24 10:18:59;;;;;;;56.53;27.40;;;8.50;99.90;;;11.81;59.16;96785.03;5047565;28;20064;-53
2023/02/24 10:21:48;;;;;;;60.30;25.27;;;8.50;99.90;;;11.78;59.10;96787.25;5058948;28;20041;-49
2023/02/24 10:24:34;;;;;;;56.23;23.67;;;8.50;99.90;;;11.73;58.80;96793.16;5055975;28;20040;-52
2023/02/24 10:27:16;;;;;;;60.87;23.60;;;8.50;99.90;;;11.57;58.96;96788.91;5074025;28;20036;-49
2023/02/24 10:30:04;;;;;;;57.37;25.57;;;8.40;99.90;;;11.57;59.10;96796.03;5050588;28;20044;-48
2023/02/24 10:32:46;;;;;;;54.03;23.00;;;8.40;99.90;;;11.54;58.54;96785.78;5057711;28;20039;-47
2023/02/24 10:35:24;;;;;;;51.43;22.37;;;8.30;99.90;;;11.55;58.70;96777.56;5055566;28;20049;-47
2023/02/24 10:37:57;;;;;;;58.83;24.30;;;8.30;99.90;;;11.60;58.44;96785.03;5056642;28;20063;-51
2023/02/24 10:40:42;;;;;;;59.77;25.33;;;8.30;99.90;;;11.65;58.61;96777.28;5073575;28;20051;-52
2023/02/24 10:43:19;;;;;;;55.33;22.87;;;8.40;99.90;;;11.68;58.44;96776.91;5073602;28;20055;-48
2023/02/24 10:45:47;;;;;;;60.40;26.17;;;8.40;99.90;;;11.60;58.56;96769.84;5072462;28;20048;-47
2023/02/24 10:48:26;;;;;;;56.90;24.93;;;8.40;99.90;;;11.55;58.59;96763.41;5054139;28;20041;-50
2023/02/24 10:51:30;;;;;;;63.37;23.70;;;8.40;99.90;;;11.59;58.62;96756.69;5070464;28;20063;-48
2023/02/24 10:54:23;;;;;;;62.47;26.83;;;8.40;99.90;;;11.62;58.38;96759.00;5073350;28;20542;-47
2023/02/24 10:57:06;;;;;;;70.67;26.00;;;8.40;99.90;;;11.58;58.84;96749.72;5066981;28;20416;-51
2023/02/24 11:03:09;;;;;;;60.87;23.80;;;8.50;99.90;;;11.60;58.69;96748.50;5073496;28;20048;-48
2023/02/24 11:06:05;;;;;;;64.33;24.77;;;8.40;99.90;;;11.66;58.32;96744.28;5065540;28;20044;-49
2023/02/24 11:08:38;;;;;;;62.45;27.35;;;8.40;99.90;;;11.66;58.37;96736.28;5073001;28;20064;-52
2023/02/24 11:17:13;;;;;;;61.10;26.10;;;8.50;99.90;;;11.54;58.41;96735.94;5055598;28;20060;-46